Time;durP1;ratioP1;P1;durP2;ratioP2;P2;SDS_P1;SDS_P2;PMS_P1;PMS_P2;Temp;Humidity;BMP_temperature;BMP_pressure;BME280_temperature;BME280_humidity;BME280_pressure;Samples;Min_cycle;Max_cycle;Signal;HPM_P1;HPM_P2
2023/05/30 00:01:22;;;;;;;4.95;1.10;;;;;;;9.62;61.43;101592.63;5081319;28;20051;-44
2023/05/30 00:03:50;;;;;;;4.85;1.00;;;;;;;9.60;60.88;101590.84;5077926;28;20048;-46
2023/05/30 00:06:17;;;;;;;9.32;1.80;;;;;;;9.58;60.73;101582.16;5085558;28;20131;-44
2023/05/30 00:08:44;;;;;;;9.50;1.45;;;;;;;9.57;61.05;101591.63;5081821;28;20051;-46
2023/05/30 00:11:14;;;;;;;3.42;1.40;;;;;;;9.55;61.63;101588.13;5079626;28;20056;-43
2023/05/30 00:13:42;;;;;;;;;;;;;;;9.38;61.61;101588.56;5080180;28;20052;-42
2023/05/30 00:16:10;;;;;;;7.43;1.20;;;;;;;9.45;61.06;101587.00;5074760;28;20007;-45
2023/05/30 00:18:38;;;;;;;5.90;1.50;;;;;;;9.43;61.55;101583.50;5083353;28;20106;-47
2023/05/30 00:21:07;;;;;;;9.43;1.55;;;;;;;9.42;61.61;101597.25;5077191;28;20701;-45
2023/05/30 00:23:39;;;;;;;6.60;1.40;;;;;;;9.40;61.80;101593.78;5079557;28;20576;-49
2023/05/30 00:26:09;;;;;;;7.78;1.30;;;;;;;9.37;61.65;101593.69;5073785;28;20336;-46
2023/05/30 00:28:36;;;;;;;3.65;1.33;;;;;;;9.34;61.36;101593.59;5081374;28;20044;-46
2023/05/30 00:31:04;;;;;;;7.35;1.50;;;;;;;9.32;61.12;101590.97;5070519;28;20044;-42
2023/05/30 00:33:30;;;;;;;10.48;2.22;;;;;;;9.31;61.78;101598.66;5076545;28;20044;-44
2023/05/30 00:35:57;;;;;;;4.78;1.17;;;;;;;9.30;61.60;101596.94;5083364;28;20040;-44
2023/05/30 00:38:24;;;;;;;6.97;1.80;;;;;;;9.26;61.55;101594.25;5074832;28;20049;-44
2023/05/30 00:40:51;;;;;;;10.60;2.85;;;;;;;9.23;61.75;101589.00;5075025;28;20444;-43
2023/05/30 00:43:19;;;;;;;7.38;1.67;;;;;;;9.22;61.48;101600.16;5074460;28;20055;-46
2023/05/30 00:45:48;;;;;;;6.10;1.42;;;;;;;9.19;61.73;101606.97;5079492;28;20040;-49
2023/05/30 00:48:15;;;;;;;4.88;1.13;;;;;;;9.15;61.78;101603.41;5082984;28;20039;-47
2023/05/30 00:50:42;;;;;;;5.78;1.38;;;;;;;9.12;61.80;101605.94;5082121;28;20051;-46
2023/05/30 00:53:09;;;;;;;5.03;2.10;;;;;;;9.09;61.85;101608.44;5073327;28;20393;-45
2023/05/30 00:55:36;;;;;;;7.45;1.83;;;;;;;9.07;61.35;101615.25;5079477;28;20694;-44
2023/05/30 00:58:03;;;;;;;7.35;1.70;;;;;;;9.05;61.80;101616.94;5080268;28;20039;-46
2023/05/30 01:00:30;;;;;;;8.27;1.52;;;;;;;9.02;61.30;101611.66;5076084;28;20063;-45
2023/05/30 01:02:59;;;;;;;8.05;1.27;;;;;;;8.99;62.34;101618.47;5067499;28;20705;-44
2023/05/30 01:05:26;;;;;;;;;;;;;;;8.85;62.24;101615.50;5080498;28;20135;-44
2023/05/30 01:07:53;;;;;;;10.13;1.80;;;;;;;8.93;61.83;101623.50;5075457;28;20265;-43
2023/05/30 01:10:21;;;;;;;7.72;1.65;;;;;;;8.94;62.09;101620.06;5084216;28;20067;-44
2023/05/30 01:13:13;;;;;;;7.97;1.45;;;;;;;8.91;62.08;101609.63;5075668;28;20181;-46
2023/05/30 01:15:50;;;;;;;10.20;1.40;;;;;;;8.94;62.13;101609.72;5072491;28;20044;-45
2023/05/30 01:21:00;;;;;;;8.55;2.22;;;;;;;8.96;62.12;101613.25;5077830;27;20388;-44
2023/05/30 01:23:45;;;;;;;5.43;1.70;;;;;;;8.94;61.89;101608.84;5003839;28;20077;-44
2023/05/30 01:28:51;;;;;;;7.65;3.10;;;;;;;9.00;62.07;101603.88;5068000;27;20389;-45
2023/05/30 01:31:19;;;;;;;6.53;2.60;;;;;;;9.03;62.26;101608.25;5071544;28;20059;-47
2023/05/30 01:33:46;;;;;;;8.38;2.83;;;;;;;9.05;62.74;101604.00;5091514;28;20044;-44
2023/05/30 01:36:13;;;;;;;5.03;3.15;;;;;;;9.05;62.78;101612.63;5089887;28;20055;-44
2023/05/30 01:38:40;;;;;;;6.75;2.97;;;;;;;9.08;63.03;101606.66;5086071;28;20053;-44
2023/05/30 01:41:19;;;;;;;10.60;3.38;;;;;;;9.10;62.98;101610.19;5097078;28;20043;-44
2023/05/30 01:44:05;;;;;;;6.88;2.95;;;;;;;9.10;62.66;101610.19;5095046;28;20052;-44
2023/05/30 01:46:35;;;;;;;8.88;3.28;;;;;;;9.16;63.62;101605.19;5096981;28;20048;-42
2023/05/30 01:51:44;;;;;;;5.25;1.77;;;;;;;9.20;62.72;101595.81;5061262;27;20926;-43
2023/05/30 01:54:15;;;;;;;8.63;1.80;;;;;;;9.22;62.96;101600.16;5014040;28;20046;-44
2023/05/30 01:56:44;;;;;;;7.13;1.73;;;;;;;9.23;63.37;101599.34;5023068;28;20041;-44
2023/05/30 01:59:11;;;;;;;11.07;2.03;;;;;;;9.25;63.09;101604.53;5038482;28;20049;-45
2023/05/30 02:01:40;;;;;;;7.75;1.63;;;;;;;9.28;63.66;101604.63;5035674;28;20046;-45
2023/05/30 02:04:06;;;;;;;5.63;2.33;;;;;;;9.31;63.24;101606.44;5025193;28;20045;-42
2023/05/30 02:06:33;;;;;;;6.57;2.13;;;;;;;9.34;63.15;101609.09;5023640;28;20053;-47
2023/05/30 02:09:00;;;;;;;6.30;1.83;;;;;;;9.35;63.74;101601.41;5022510;28;20057;-42
2023/05/30 02:11:27;;;;;;;6.25;1.92;;;;;;;9.38;63.12;101610.94;5022321;28;20042;-45
2023/05/30 02:13:53;;;;;;;9.25;1.85;;;;;;;9.40;63.16;101614.47;5021392;28;20049;-44
2023/05/30 02:16:20;;;;;;;9.73;2.35;;;;;;;9.42;63.49;101612.78;5022161;28;20048;-42
2023/05/30 02:18:47;;;;;;;9.43;1.77;;;;;;;9.43;63.51;101609.38;5029310;28;20053;-46
2023/05/30 02:21:13;;;;;;;7.35;1.40;;;;;;;9.44;63.50;101613.72;5035707;28;20034;-45
2023/05/30 02:23:40;;;;;;;10.63;2.15;;;;;;;9.46;63.74;101619.78;5032008;28;20490;-42
2023/05/30 02:26:07;;;;;;;7.38;1.55;;;;;;;9.49;63.27;101624.19;5021562;28;20048;-44
2023/05/30 02:28:33;;;;;;;7.93;2.15;;;;;;;9.49;63.53;101626.78;5036628;28;20683;-44
2023/05/30 02:31:01;;;;;;;6.95;1.48;;;;;;;9.49;63.58;101635.38;5025894;28;20050;-44
2023/05/30 02:33:28;;;;;;;8.25;1.90;;;;;;;9.51;63.51;101632.84;5020500;28;20057;-44
2023/05/30 02:35:55;;;;;;;11.13;2.20;;;;;;;9.51;63.34;101636.31;5016436;28;20054;-43
2023/05/30 02:38:21;;;;;;;7.57;1.77;;;;;;;9.55;63.43;101637.25;5020731;28;20050;-43
2023/05/30 02:40:48;;;;;;;6.07;1.50;;;;;;;9.55;63.54;101639.00;5021970;28;20046;-45
2023/05/30 02:43:14;;;;;;;6.55;1.77;;;;;;;9.57;63.54;101638.19;5019710;28;20076;-46
2023/05/30 02:45:46;;;;;;;6.35;1.73;;;;;;;9.59;63.86;101631.34;5019474;28;20050;-46
2023/05/30 02:48:13;;;;;;;6.07;1.48;;;;;;;9.60;63.66;101627.06;5012158;28;20049;-49
2023/05/30 02:50:39;;;;;;;7.50;1.45;;;;;;;9.62;63.60;101635.72;5013194;28;20482;-44
2023/05/30 02:53:06;;;;;;;10.10;1.75;;;;;;;9.63;63.61;101634.91;5014480;28;20038;-43
2023/05/30 02:55:32;;;;;;;14.43;2.47;;;;;;;9.64;63.77;101639.22;5019832;28;20054;-44
2023/05/30 02:57:59;;;;;;;7.13;1.23;;;;;;;9.64;64.32;101639.22;5012654;28;20046;-48
2023/05/30 03:00:26;;;;;;;10.13;2.10;;;;;;;9.63;63.80;101643.53;5018245;28;20041;-43
2023/05/30 03:02:54;;;;;;;11.93;1.80;;;;;;;9.63;63.92;101647.84;5025343;28;20572;-47
2023/05/30 03:05:21;;;;;;;5.57;1.40;;;;;;;9.64;63.92;101644.41;5024337;28;20145;-45
2023/05/30 03:07:48;;;;;;;4.47;1.63;;;;;;;9.64;63.61;101649.56;5022249;28;20752;-47
2023/05/30 03:10:15;;;;;;;4.28;1.60;;;;;;;9.63;63.99;101637.50;5025116;28;20047;-45
2023/05/30 03:12:41;;;;;;;3.83;1.52;;;;;;;9.63;64.12;101637.50;5023168;28;20587;-45
2023/05/30 03:15:09;;;;;;;9.70;2.25;;;;;;;9.63;64.03;101634.91;5026976;28;20041;-44
2023/05/30 03:17:36;;;;;;;7.03;2.50;;;;;;;9.61;64.10;101628.78;5018356;28;20076;-44
2023/05/30 03:20:06;;;;;;;8.90;1.55;;;;;;;9.59;64.25;101630.47;5024416;28;20588;-46
2023/05/30 03:22:34;;;;;;;5.25;1.90;;;;;;;9.59;64.41;101627.91;5017069;28;20157;-44
2023/05/30 03:25:01;;;;;;;5.10;1.38;;;;;;;9.58;64.31;101626.13;5029519;28;20136;-45
2023/05/30 03:27:27;;;;;;;4.07;1.75;;;;;;;9.60;64.48;101632.22;5017966;28;20584;-43
2023/05/30 03:29:56;;;;;;;9.07;1.65;;;;;;;9.60;64.34;101637.41;5000634;28;20058;-45
2023/05/30 03:32:23;;;;;;;6.15;1.33;;;;;;;9.61;64.55;101639.16;5005401;28;20432;-42
2023/05/30 03:34:49;;;;;;;8.25;1.70;;;;;;;9.62;64.60;101636.59;4997097;28;20101;-45
2023/05/30 03:37:16;;;;;;;6.85;1.60;;;;;;;9.61;64.74;101633.97;5004948;28;20046;-43
2023/05/30 03:39:43;;;;;;;6.95;1.92;;;;;;;9.60;64.43;101637.41;5004183;28;20402;-42
2023/05/30 03:42:09;;;;;;;8.23;1.52;;;;;;;9.61;64.50;101636.56;5003204;28;20068;-48
2023/05/30 03:44:36;;;;;;;4.38;1.40;;;;;;;9.62;64.73;101638.31;5003877;28;20701;-43
2023/05/30 03:47:03;;;;;;;5.57;1.77;;;;;;;9.63;65.21;101640.06;4998707;28;20053;-44
2023/05/30 03:49:30;;;;;;;8.15;1.55;;;;;;;9.63;64.95;101638.34;5001105;28;20058;-46
2023/05/30 03:51:56;;;;;;;7.32;1.40;;;;;;;9.64;64.52;101637.53;5001181;28;20054;-45
2023/05/30 03:54:23;;;;;;;5.15;1.75;;;;;;;9.66;64.84;101642.72;4999422;28;20053;-43
2023/05/30 03:56:50;;;;;;;8.18;1.45;;;;;;;9.66;64.88;101642.72;5003610;28;20478;-45
2023/05/30 03:59:17;;;;;;;9.55;1.60;;;;;;;9.66;65.47;101634.97;5000481;28;20057;-44
2023/05/30 04:01:43;;;;;;;8.20;1.73;;;;;;;9.65;64.97;101640.97;5003125;28;20053;-43
2023/05/30 04:04:10;;;;;;;4.15;1.55;;;;;;;9.66;64.96;101642.72;5004763;28;20061;-46
2023/05/30 04:06:37;;;;;;;6.43;1.60;;;;;;;9.69;65.60;101649.72;4999601;28;20084;-44
2023/05/30 04:09:04;;;;;;;7.57;1.50;;;;;;;9.67;65.52;101653.97;5005015;28;20042;-45
2023/05/30 04:11:31;;;;;;;4.10;1.33;;;;;;;9.68;65.50;101650.53;5004587;28;20053;-44
2023/05/30 04:13:58;;;;;;;5.38;1.33;;;;;;;9.69;65.62;101653.16;4997062;28;20041;-45
2023/05/30 04:16:25;;;;;;;13.85;1.63;;;;;;;9.70;66.01;101649.75;5004149;28;20103;-43
2023/05/30 04:18:51;;;;;;;7.30;1.63;;;;;;;9.73;65.71;101655.00;5001557;28;20125;-45
2023/05/30 04:21:18;;;;;;;5.63;1.58;;;;;;;9.76;65.70;101649.91;4991735;28;20046;-43
2023/05/30 04:23:44;;;;;;;5.28;1.65;;;;;;;9.77;65.61;101651.66;5005297;28;20050;-42
2023/05/30 04:26:11;;;;;;;8.40;1.98;;;;;;;9.81;65.04;101642.28;5010197;28;20079;-44
2023/05/30 04:28:38;;;;;;;9.98;1.65;;;;;;;9.84;65.35;101646.66;4994831;28;20125;-44
2023/05/30 04:31:06;;;;;;;6.43;1.23;;;;;;;9.86;65.80;101651.03;5001852;28;20052;-43
2023/05/30 04:33:48;;;;;;;9.45;1.95;;;;;;;9.89;65.78;101650.22;5016708;28;20048;-43
2023/05/30 04:36:18;;;;;;;7.65;1.50;;;;;;;9.92;65.38;101650.31;5017395;28;20045;-43
2023/05/30 04:38:45;;;;;;;7.57;2.42;;;;;;;9.95;65.90;101650.38;5011132;28;20068;-44
2023/05/30 04:41:18;;;;;;;6.07;2.15;;;;;;;9.99;65.32;101652.22;5018890;28;20058;-43
2023/05/30 04:43:52;;;;;;;6.32;1.35;;;;;;;10.03;65.42;101654.03;5011447;28;20049;-43
2023/05/30 04:46:21;;;;;;;4.72;1.50;;;;;;;10.03;65.80;101664.41;5018269;28;20080;-44
2023/05/30 04:48:53;;;;;;;5.05;1.30;;;;;;;10.09;65.68;101667.97;5022690;28;20719;-46
2023/05/30 04:51:21;;;;;;;6.75;1.42;;;;;;;10.11;66.02;101671.50;5022554;28;20045;-44
2023/05/30 04:53:48;;;;;;;9.13;1.73;;;;;;;10.11;66.19;101666.31;5021962;28;20045;-44
2023/05/30 04:56:15;;;;;;;5.65;1.92;;;;;;;10.12;65.89;101668.06;5021889;28;20053;-46
2023/05/30 04:58:44;;;;;;;4.82;1.58;;;;;;;10.18;65.77;101670.81;5014800;28;20096;-45
2023/05/30 05:01:11;;;;;;;3.90;1.15;;;;;;;10.16;66.61;101675.06;5023757;28;20045;-44
2023/05/30 05:03:38;;;;;;;8.10;1.20;;;;;;;10.23;65.93;101676.09;5017924;28;20054;-42
2023/05/30 05:06:06;;;;;;;6.38;1.63;;;;;;;10.22;65.89;101675.22;5022182;28;20079;-43
2023/05/30 05:08:33;;;;;;;4.07;1.35;;;;;;;10.28;66.43;101667.63;5019948;28;20525;-43
2023/05/30 05:11:03;;;;;;;4.53;1.38;;;;;;;10.31;65.90;101671.09;5021544;28;20175;-45
2023/05/30 05:13:31;;;;;;;9.02;1.65;;;;;;;10.29;66.78;101671.94;5017745;28;20107;-45
2023/05/30 05:15:57;;;;;;;4.38;1.75;;;;;;;10.37;66.33;101676.44;5027656;28;20041;-45
2023/05/30 05:18:24;;;;;;;5.80;1.83;;;;;;;10.39;66.18;101667.88;5025603;28;21062;-46
2023/05/30 05:20:51;;;;;;;8.43;1.55;;;;;;;10.42;66.32;101672.25;5017786;28;20047;-45
2023/05/30 05:23:18;;;;;;;7.47;1.63;;;;;;;10.46;65.90;101671.50;5021042;28;20567;-43
2023/05/30 05:25:45;;;;;;;2.20;0.98;;;;;;;10.50;65.71;101678.50;5003862;28;20056;-44
2023/05/30 05:28:11;;;;;;;6.35;1.40;;;;;;;10.52;65.90;101679.44;5002114;28;20057;-43
2023/05/30 05:30:38;;;;;;;8.88;2.17;;;;;;;10.56;66.11;101684.66;4993577;28;20140;-46
2023/05/30 05:33:05;;;;;;;9.32;1.23;;;;;;;10.59;66.00;101684.75;5024093;28;20053;-45
2023/05/30 05:35:32;;;;;;;7.63;1.80;;;;;;;10.62;65.67;101688.31;5021260;28;20539;-45
2023/05/30 05:37:59;;;;;;;8.18;1.75;;;;;;;10.67;65.66;101683.22;5003467;28;20046;-43
2023/05/30 05:40:25;;;;;;;11.02;1.77;;;;;;;10.69;65.73;101684.13;4999272;28;20056;-45
2023/05/30 05:42:52;;;;;;;6.93;1.98;;;;;;;10.72;65.31;101684.22;4992349;28;20046;-45
2023/05/30 05:45:19;;;;;;;7.82;1.60;;;;;;;10.76;65.24;101683.44;4999923;28;22870;-45
2023/05/30 05:47:45;;;;;;;8.82;2.08;;;;;;;10.76;65.10;101688.63;5004066;28;20054;-44
2023/05/30 05:50:12;;;;;;;9.25;1.65;;;;;;;10.79;65.12;101688.69;5000829;28;20054;-46
2023/05/30 05:52:40;;;;;;;3.88;1.00;;;;;;;10.86;65.13;101699.19;4997335;28;20609;-46
2023/05/30 05:55:07;;;;;;;8.93;1.80;;;;;;;10.89;65.12;101692.38;5003209;28;20053;-46
2023/05/30 05:57:33;;;;;;;3.55;1.33;;;;;;;10.92;64.91;101686.38;5002482;28;20057;-44
2023/05/30 06:00:01;;;;;;;5.53;1.50;;;;;;;10.97;65.44;101695.13;5000678;28;20050;-46
2023/05/30 06:02:28;;;;;;;14.30;2.08;;;;;;;11.01;65.33;101693.50;5020470;28;20661;-45
2023/05/30 06:04:54;;;;;;;4.38;1.20;;;;;;;11.03;65.03;101699.56;5019899;28;20077;-44
2023/05/30 06:07:21;;;;;;;6.10;1.40;;;;;;;11.14;64.24;101699.78;5017902;28;20046;-48
2023/05/30 06:09:48;;;;;;;6.40;1.50;;;;;;;11.18;64.80;101701.63;5022441;28;20060;-45
2023/05/30 06:12:14;;;;;;;5.07;1.42;;;;;;;11.25;64.28;101705.22;5023031;28;20041;-45
2023/05/30 06:14:41;;;;;;;6.90;1.85;;;;;;;11.28;64.05;101707.88;5024916;28;20045;-44
2023/05/30 06:17:08;;;;;;;5.90;1.15;;;;;;;11.31;64.32;101708.81;5020209;28;20516;-45
2023/05/30 06:19:35;;;;;;;4.03;1.23;;;;;;;11.37;63.84;101702.00;5017652;28;20055;-45
2023/05/30 06:22:01;;;;;;;6.90;1.90;;;;;;;11.44;63.52;101709.06;5014735;28;20568;-44
2023/05/30 06:24:28;;;;;;;5.70;1.25;;;;;;;11.50;64.44;101706.59;5028462;28;20056;-45
2023/05/30 06:26:54;;;;;;;6.28;1.30;;;;;;;11.50;64.18;101704.00;5019436;28;20427;-47
2023/05/30 06:29:21;;;;;;;8.93;1.33;;;;;;;11.60;62.85;101714.56;5016109;28;20057;-45
2023/05/30 06:31:48;;;;;;;6.45;1.98;;;;;;;11.64;63.02;101706.00;5018493;28;20046;-45
2023/05/30 06:34:18;;;;;;;7.80;1.50;;;;;;;11.76;62.93;101711.41;5018586;28;20391;-46
2023/05/30 06:36:45;;;;;;;6.20;1.33;;;;;;;11.85;62.66;101710.72;5021329;28;20052;-42
2023/05/30 06:39:15;;;;;;;5.60;1.27;;;;;;;11.95;63.74;101719.56;5019742;28;20084;-44
2023/05/30 06:41:43;;;;;;;;;;;;;;;11.94;62.79;101725.59;5020059;28;20056;-43
2023/05/30 06:44:09;;;;;;;4.55;0.90;;;;;;;12.06;62.15;101718.06;5021898;28;19997;-46
2023/05/30 06:46:37;;;;;;;3.75;1.33;;;;;;;12.06;61.43;101736.25;5020769;28;20053;-45
2023/05/30 06:49:04;;;;;;;7.40;1.50;;;;;;;12.07;61.47;101730.22;5016008;28;20379;-47
2023/05/30 06:51:31;;;;;;;7.25;1.70;;;;;;;12.12;61.93;101730.28;5003068;28;20050;-46
2023/05/30 06:53:57;;;;;;;7.47;0.82;;;;;;;12.10;61.62;101721.59;5002714;28;20042;-45
2023/05/30 06:56:26;;;;;;;6.50;0.88;;;;;;;12.10;62.24;101729.41;5024541;28;20061;-49
2023/05/30 06:58:52;;;;;;;13.00;1.25;;;;;;;12.18;62.33;101725.22;5011609;28;20077;-44
2023/05/30 07:01:19;;;;;;;4.63;1.00;;;;;;;12.27;61.27;101734.00;5017388;28;20498;-44
2023/05/30 07:03:46;;;;;;;6.57;1.33;;;;;;;12.29;61.44;101737.53;5020103;28;20069;-44
2023/05/30 07:06:12;;;;;;;7.70;1.35;;;;;;;12.26;61.74;101722.72;5024260;28;20049;-46
2023/05/30 07:08:39;;;;;;;6.72;1.42;;;;;;;12.23;61.35;101735.69;5024094;28;20054;-45
2023/05/30 07:11:06;;;;;;;3.20;1.15;;;;;;;12.22;61.69;101736.50;5021152;28;20053;-44
2023/05/30 07:13:33;;;;;;;14.48;1.85;;;;;;;12.23;61.64;101727.91;5019251;28;20413;-47
2023/05/30 07:16:00;;;;;;;9.52;1.92;;;;;;;12.30;61.49;101721.94;5013679;28;20517;-46
2023/05/30 07:18:26;;;;;;;3.95;0.95;;;;;;;12.42;60.80;101728.19;5020215;28;20049;-44
2023/05/30 07:20:53;;;;;;;7.78;0.93;;;;;;;12.47;61.75;101723.97;5018397;28;20045;-48
2023/05/30 07:23:20;;;;;;;5.20;1.20;;;;;;;12.43;61.72;101728.22;5023477;28;20049;-46
2023/05/30 07:25:46;;;;;;;5.00;1.10;;;;;;;12.43;60.39;101725.59;5028307;28;20041;-45
2023/05/30 07:28:13;;;;;;;3.83;1.30;;;;;;;12.45;61.51;101728.25;5023328;28;20057;-47
2023/05/30 07:30:42;;;;;;;3.80;1.30;;;;;;;12.43;60.41;101729.97;5019926;28;20779;-48
2023/05/30 07:33:08;;;;;;;7.68;0.80;;;;;;;12.45;61.56;101736.03;5016419;28;20046;-47
2023/05/30 07:35:35;;;;;;;5.97;1.40;;;;;;;12.51;60.47;101743.94;5024930;28;20612;-48
2023/05/30 07:38:01;;;;;;;3.92;1.25;;;;;;;12.60;60.58;101733.69;5027642;28;20042;-48
2023/05/30 07:40:28;;;;;;;4.60;1.05;;;;;;;12.63;60.57;101735.44;5011451;28;20068;-49
2023/05/30 07:42:55;;;;;;;9.35;1.58;;;;;;;12.71;61.67;101726.03;5015343;28;20576;-47
2023/05/30 07:45:21;;;;;;;3.72;0.95;;;;;;;12.79;60.69;101744.38;5016968;28;20050;-46
2023/05/30 07:47:48;;;;;;;4.70;1.30;;;;;;;12.82;61.32;101725.34;5022683;28;20060;-46
2023/05/30 07:50:15;;;;;;;4.35;1.25;;;;;;;12.94;60.17;101729.88;5024891;28;20046;-44
2023/05/30 07:52:42;;;;;;;4.63;0.95;;;;;;;13.05;60.76;101730.88;5009548;28;20049;-44
2023/05/30 07:55:08;;;;;;;2.70;1.00;;;;;;;13.08;60.82;101725.72;5016536;28;20231;-47
2023/05/30 07:57:35;;;;;;;6.43;1.25;;;;;;;13.18;59.73;101731.06;5014470;28;20056;-47
2023/05/30 08:00:07;;;;;;;4.93;1.00;;;;;;;13.24;60.88;101731.13;5018309;28;20046;-46
2023/05/30 08:02:35;;;;;;;2.92;1.13;;;;;;;13.25;59.36;101738.09;5015776;28;20073;-46
2023/05/30 08:05:02;;;;;;;5.90;1.20;;;;;;;13.28;59.30;101737.25;5027937;28;20649;-43
2023/05/30 08:07:31;;;;;;;8.55;1.38;;;;;;;13.34;59.60;101737.34;5019742;28;20481;-44
2023/05/30 08:09:58;;;;;;;5.03;1.33;;;;;;;13.44;60.13;101738.34;5016374;28;20049;-45
2023/05/30 08:12:28;;;;;;;5.57;1.02;;;;;;;13.52;60.16;101738.44;5020793;28;20049;-46
2023/05/30 08:14:56;;;;;;;3.80;1.45;;;;;;;13.62;60.51;101738.56;5026417;28;20041;-45
2023/05/30 08:17:25;;;;;;;5.88;0.85;;;;;;;13.71;60.62;101735.19;5013974;28;20050;-45
2023/05/30 08:19:53;;;;;;;6.30;1.65;;;;;;;13.78;59.92;101740.50;5013294;28;20045;-47
2023/05/30 08:22:21;;;;;;;5.68;1.48;;;;;;;13.78;59.63;101728.31;5016113;28;20072;-46
2023/05/30 08:24:50;;;;;;;5.95;1.05;;;;;;;13.78;59.44;101730.06;5016978;28;20068;-48
2023/05/30 08:27:20;;;;;;;10.63;1.17;;;;;;;13.84;60.06;101733.63;5027396;28;20054;-44
2023/05/30 08:29:49;;;;;;;5.55;0.90;;;;;;;13.96;60.74;101734.59;5012625;28;20108;-45
2023/05/30 08:32:17;;;;;;;3.00;0.82;;;;;;;14.02;60.63;101737.28;5019804;28;20038;-50
2023/05/30 08:34:45;;;;;;;4.57;1.42;;;;;;;14.08;60.52;101733.88;5014314;28;20057;-48
2023/05/30 08:37:12;;;;;;;4.85;1.38;;;;;;;14.05;60.05;101737.28;5017676;28;20042;-47
2023/05/30 08:39:39;;;;;;;7.30;1.17;;;;;;;14.09;59.48;101730.38;5013180;28;20497;-46
2023/05/30 08:42:06;;;;;;;4.63;1.38;;;;;;;14.08;59.78;101737.31;5015476;28;20044;-49
2023/05/30 08:44:33;;;;;;;7.40;1.15;;;;;;;14.05;59.87;101745.09;5011733;28;20712;-46
2023/05/30 08:47:00;;;;;;;5.88;1.17;;;;;;;14.00;59.72;101736.38;5014203;28;20057;-45
2023/05/30 08:49:31;;;;;;;6.10;0.73;;;;;;;13.96;60.12;101738.09;5016329;28;20132;-44
2023/05/30 08:52:02;;;;;;;5.32;1.30;;;;;;;13.95;60.04;101745.88;5019897;28;20048;-44
2023/05/30 08:54:36;;;;;;;3.45;1.23;;;;;;;13.95;60.70;101725.03;5023835;28;20420;-44
2023/05/30 08:57:14;;;;;;;5.35;0.93;;;;;;;14.02;60.37;101726.84;5014532;28;20596;-45
2023/05/30 08:59:43;;;;;;;3.60;0.93;;;;;;;14.05;60.11;101726.88;5020752;28;20132;-45
2023/05/30 09:02:12;;;;;;;2.35;1.10;;;;;;;14.11;60.58;101732.16;5026691;28;20047;-47
2023/05/30 09:04:41;;;;;;;4.72;1.02;;;;;;;14.06;60.69;101722.53;5026367;28;20056;-46
2023/05/30 09:07:09;;;;;;;2.88;1.05;;;;;;;14.02;60.91;101726.84;5014488;28;20064;-45
2023/05/30 09:09:36;;;;;;;3.67;1.17;;;;;;;14.04;60.37;101729.44;5020119;28;20049;-46
2023/05/30 09:12:03;;;;;;;6.57;1.15;;;;;;;14.04;60.70;101719.03;5024861;28;20050;-46
2023/05/30 09:14:30;;;;;;;2.63;1.23;;;;;;;14.05;60.42;101721.66;5018848;28;20056;-46
2023/05/30 09:16:57;;;;;;;8.60;1.02;;;;;;;14.06;60.11;101718.22;5016984;28;20045;-50
2023/05/30 09:19:24;;;;;;;9.77;1.33;;;;;;;14.12;60.07;101718.25;5021589;28;20049;-47
2023/05/30 09:21:51;;;;;;;7.28;1.33;;;;;;;14.14;61.05;101720.88;5018078;28;20033;-46
2023/05/30 09:24:18;;;;;;;5.63;1.60;;;;;;;14.19;60.38;101718.31;5014616;28;20060;-48
2023/05/30 09:27:01;;;;;;;3.85;1.27;;;;;;;14.22;60.90;101720.97;5023802;28;20055;-45
2023/05/30 09:29:28;;;;;;;;;;;;;;;14.19;61.41;101723.53;5014419;28;20119;-49
2023/05/30 09:31:55;;;;;;;4.05;1.35;;;;;;;14.35;60.30;101721.91;5018929;28;19924;-46
2023/05/30 09:34:22;;;;;;;7.50;1.20;;;;;;;14.47;60.73;101714.22;5025326;28;20649;-47
2023/05/30 09:36:54;;;;;;;6.70;1.40;;;;;;;14.56;60.75;101716.00;5018744;28;20409;-46
2023/05/30 09:39:23;;;;;;;5.18;1.70;;;;;;;14.56;60.03;101715.16;5020126;28;20059;-50
2023/05/30 09:41:55;;;;;;;4.53;1.63;;;;;;;14.51;60.10;101709.88;5010799;28;20042;-44
2023/05/30 09:44:22;;;;;;;4.97;1.20;;;;;;;14.44;60.48;101713.31;5020253;28;20046;-47
2023/05/30 09:46:54;;;;;;;3.08;0.95;;;;;;;14.43;59.76;101717.66;5010656;28;20058;-44
2023/05/30 09:49:21;;;;;;;3.83;1.38;;;;;;;14.44;60.06;101728.94;5021820;28;20106;-48
2023/05/30 09:51:50;;;;;;;4.65;1.65;;;;;;;14.47;59.94;101713.31;5024080;28;20049;-45
2023/05/30 09:54:18;;;;;;;8.27;1.60;;;;;;;14.50;59.83;101703.81;5017225;28;20045;-48
2023/05/30 09:56:45;;;;;;;4.70;1.67;;;;;;;14.50;59.95;101702.94;5026858;28;20128;-51
2023/05/30 09:59:14;;;;;;;10.20;1.90;;;;;;;14.57;59.86;101714.28;5014195;28;20053;-45
2023/05/30 10:01:46;;;;;;;7.45;1.80;;;;;;;14.59;60.48;101712.56;5019262;28;20157;-47
2023/05/30 10:04:16;;;;;;;5.47;1.90;;;;;;;14.63;60.21;101704.75;5022838;28;20103;-48
2023/05/30 10:06:45;;;;;;;5.40;1.75;;;;;;;14.74;59.96;101707.47;5017842;28;20045;-48
2023/05/30 10:09:13;;;;;;;7.90;2.35;;;;;;;14.76;59.73;101704.84;5015553;28;20048;-45
2023/05/30 10:11:42;;;;;;;4.10;1.13;;;;;;;14.86;59.38;101706.66;5021334;28;20124;-48
2023/05/30 10:14:10;;;;;;;6.72;1.90;;;;;;;14.98;59.56;101707.59;5024126;28;20469;-47
2023/05/30 10:16:46;;;;;;;7.10;1.42;;;;;;;14.98;59.55;101700.66;5025958;28;20045;-48
2023/05/30 10:19:18;;;;;;;6.75;1.73;;;;;;;15.07;59.63;101707.69;5017335;28;20529;-47
2023/05/30 10:21:45;;;;;;;3.88;1.50;;;;;;;15.08;58.93;101709.41;5017057;28;20054;-47
2023/05/30 10:24:14;;;;;;;10.77;2.30;;;;;;;15.14;59.72;101705.97;5020605;28;20045;-44
2023/05/30 10:26:48;;;;;;;4.55;1.90;;;;;;;15.25;59.28;101703.38;5016098;28;20045;-44
2023/05/30 10:29:18;;;;;;;5.32;1.60;;;;;;;15.30;58.81;101704.28;5020596;28;20050;-45
2023/05/30 10:31:45;;;;;;;6.03;2.13;;;;;;;15.37;58.66;101700.81;5029052;28;20061;-44
2023/05/30 10:34:14;;;;;;;4.65;1.50;;;;;;;15.41;59.06;101713.03;5020397;28;20053;-47
2023/05/30 10:36:42;;;;;;;6.20;1.90;;;;;;;15.36;58.87;101701.69;5020416;28;20121;-45
2023/05/30 10:42:03;;;;;;;9.80;3.05;;;;;;;15.62;57.64;101697.44;5072215;27;20398;-46
2023/05/30 10:44:55;;;;;;;4.97;3.40;;;;;;;15.39;58.58;101696.50;5026721;28;20061;-44
2023/05/30 10:47:55;;;;;;;10.05;3.40;;;;;;;15.38;58.13;101699.09;5041757;28;20049;-46
2023/05/30 10:50:31;;;;;;;8.30;3.63;;;;;;;15.38;57.93;101699.09;5036544;28;20095;-45
2023/05/30 10:52:58;;;;;;;7.60;3.70;;;;;;;15.33;58.56;101699.06;5039758;28;20520;-45
2023/05/30 10:55:28;;;;;;;6.85;3.83;;;;;;;15.34;59.24;101698.22;5027680;28;20068;-45
2023/05/30 10:57:54;;;;;;;;;;;;;;;15.22;59.54;101709.47;5029055;28;20053;-46
2023/05/30 11:03:00;;;;;;;3.90;1.90;;;;;;;15.44;58.58;101693.03;5081582;27;20386;-45
2023/05/30 11:05:32;;;;;;;7.00;1.48;;;;;;;15.42;58.55;101696.50;5010022;28;20079;-44
2023/05/30 11:08:01;;;;;;;6.32;1.95;;;;;;;15.45;59.14;101700.88;5012785;28;20133;-45
2023/05/30 11:10:29;;;;;;;6.90;2.17;;;;;;;15.45;58.53;101699.97;5026773;28;20049;-47
2023/05/30 11:13:14;;;;;;;5.55;1.95;;;;;;;15.38;58.24;101699.97;5025243;28;20049;-45
2023/05/30 11:15:45;;;;;;;4.22;1.58;;;;;;;15.38;58.17;101705.19;5030396;28;20129;-47
2023/05/30 11:18:15;;;;;;;5.88;1.55;;;;;;;15.37;58.39;101703.44;5030957;28;20049;-43
2023/05/30 11:20:58;;;;;;;6.57;1.88;;;;;;;15.38;58.53;101699.97;5030821;28;20056;-46
2023/05/30 11:23:27;;;;;;;13.07;2.17;;;;;;;15.48;58.24;101702.59;5031015;28;20045;-44
2023/05/30 11:25:55;;;;;;;7.45;2.45;;;;;;;15.46;58.01;101699.09;5031891;28;20137;-46
2023/05/30 11:28:40;;;;;;;7.75;2.00;;;;;;;15.41;58.57;101705.19;5035809;28;20045;-47
2023/05/30 11:31:23;;;;;;;9.23;2.47;;;;;;;15.41;58.50;101710.41;5015991;28;20508;-45
2023/05/30 11:33:51;;;;;;;7.40;2.83;;;;;;;15.42;58.47;101704.34;5034947;28;20068;-45
2023/05/30 11:36:20;;;;;;;4.63;2.05;;;;;;;15.36;58.98;101704.31;5023889;28;21684;-44
2023/05/30 11:38:46;;;;;;;6.90;2.47;;;;;;;15.35;59.42;101699.97;5026078;28;20042;-46
2023/05/30 11:41:14;;;;;;;3.33;1.77;;;;;;;15.32;58.91;101704.28;5024211;28;20437;-47
2023/05/30 11:43:43;;;;;;;6.43;2.28;;;;;;;15.24;58.86;101707.75;5037176;28;20080;-45
2023/05/30 11:46:11;;;;;;;4.82;2.28;;;;;;;15.15;59.48;101698.16;5024421;28;20046;-47
2023/05/30 11:48:38;;;;;;;2.35;1.05;;;;;;;15.10;59.58;101698.97;5029290;28;20041;-45